createdAt,value
2022-12-16T00:01:13.847Z,49.63
2022-12-16T00:03:44.253Z,61.10
2022-12-16T00:06:12.062Z,50.97
2022-12-16T00:08:40.977Z,62.57
2022-12-16T00:11:09.768Z,72.45
2022-12-16T00:13:40.275Z,72.25
2022-12-16T00:16:11.325Z,66.30
2022-12-16T00:18:39.280Z,73.95
2022-12-16T00:21:07.300Z,78.88
2022-12-16T00:23:36.507Z,74.43
2022-12-16T00:26:04.438Z,57.90
2022-12-16T00:28:32.377Z,66.43
2022-12-16T00:31:00.026Z,58.38
2022-12-16T00:33:29.622Z,58.80
2022-12-16T00:35:58.139Z,63.07
2022-12-16T00:38:27.582Z,66.43
2022-12-16T00:40:55.287Z,66.28
2022-12-16T00:43:22.984Z,69.17
2022-12-16T00:45:51.979Z,71.00
2022-12-16T00:48:22.864Z,68.30
2022-12-16T00:50:52.939Z,55.07
2022-12-16T00:53:23.873Z,64.30
2022-12-16T00:55:51.799Z,68.90
2022-12-16T00:58:19.642Z,73.00
2022-12-16T01:00:47.427Z,66.23
2022-12-16T01:03:21.080Z,73.07
2022-12-16T01:05:49.201Z,69.90
2022-12-16T01:08:18.203Z,68.57
2022-12-16T01:10:51.639Z,71.23
2022-12-16T01:13:20.161Z,66.57
2022-12-16T01:15:47.980Z,70.97
2022-12-16T01:18:16.053Z,62.85
2022-12-16T01:20:43.820Z,67.83
2022-12-16T01:23:11.707Z,57.63
2022-12-16T01:25:40.695Z,62.43
2022-12-16T01:28:08.457Z,66.23
2022-12-16T01:30:36.176Z,71.93
2022-12-16T01:33:03.917Z,48.00
2022-12-16T01:38:19.562Z,55.77
2022-12-16T01:40:48.653Z,67.83
2022-12-16T01:43:26.410Z,43.53
2022-12-16T01:45:55.513Z,63.25
2022-12-16T01:48:31.646Z,51.92
2022-12-16T01:51:03.112Z,65.68
2022-12-16T01:53:31.363Z,57.50
2022-12-16T01:56:01.389Z,68.07
2022-12-16T01:58:31.615Z,56.10
2022-12-16T02:00:59.642Z,65.73
2022-12-16T02:03:27.443Z,66.68
2022-12-16T02:05:55.193Z,63.53
2022-12-16T02:08:23.179Z,66.47
2022-12-16T02:11:16.172Z,67.47
2022-12-16T02:13:59.429Z,57.90
2022-12-16T02:16:31.783Z,48.40
2022-12-16T02:19:04.060Z,72.40
2022-12-16T02:21:48.767Z,63.63
2022-12-16T02:24:47.735Z,58.05
2022-12-16T02:27:47.363Z,63.67
2022-12-16T02:30:42.170Z,65.45
2022-12-16T02:33:18.426Z,54.47
2022-12-16T02:35:49.320Z,71.53
2022-12-16T02:38:23.578Z,66.47
2022-12-16T02:40:54.072Z,72.47
2022-12-16T02:43:34.999Z,67.25
2022-12-16T02:46:05.424Z,71.03
2022-12-16T02:48:33.138Z,59.30
2022-12-16T02:51:01.034Z,69.27
2022-12-16T02:53:29.537Z,59.70
2022-12-16T02:56:05.131Z,65.53
2022-12-16T02:58:37.485Z,64.47
2022-12-16T03:01:11.745Z,68.10
2022-12-16T03:03:45.877Z,52.20
2022-12-16T03:06:15.299Z,56.08
2022-12-16T03:08:45.905Z,64.50
2022-12-16T03:11:13.918Z,64.10
2022-12-16T03:13:44.647Z,66.97
2022-12-16T03:16:15.709Z,60.95
2022-12-16T03:18:45.680Z,57.00
2022-12-16T03:21:15.351Z,53.80
2022-12-16T03:23:46.822Z,63.70
2022-12-16T03:26:17.382Z,66.72
2022-12-16T03:28:47.196Z,74.45
2022-12-16T03:31:21.010Z,48.55
2022-12-16T03:33:51.254Z,63.83
2022-12-16T03:36:22.495Z,69.75
2022-12-16T03:38:51.529Z,62.92
2022-12-16T03:41:21.729Z,68.35
2022-12-16T03:43:50.007Z,62.20
2022-12-16T03:46:19.588Z,68.60
2022-12-16T03:48:48.915Z,62.67
2022-12-16T03:51:16.980Z,55.55
2022-12-16T03:53:44.817Z,70.10
2022-12-16T03:56:12.718Z,53.25
2022-12-16T03:58:40.941Z,62.85
2022-12-16T04:01:10.410Z,61.23
2022-12-16T04:03:39.984Z,68.38
2022-12-16T04:06:08.431Z,73.80
2022-12-16T04:08:36.129Z,64.75
2022-12-16T04:11:21.344Z,69.93
2022-12-16T04:14:06.721Z,46.03
2022-12-16T04:16:52.126Z,63.63
2022-12-16T04:19:41.916Z,71.00
2022-12-16T04:22:31.264Z,49.55
2022-12-16T04:25:02.582Z,56.67
2022-12-16T04:27:30.312Z,70.10
2022-12-16T04:30:15.757Z,62.42
2022-12-16T04:33:03.597Z,67.38
2022-12-16T04:35:50.365Z,50.60
2022-12-16T04:41:20.743Z,158.05
2022-12-16T04:44:14.482Z,56.30
2022-12-16T04:46:56.145Z,62.63
2022-12-16T04:49:41.601Z,60.93
2022-12-16T04:52:28.471Z,65.63
2022-12-16T04:55:13.605Z,60.47
2022-12-16T04:57:58.890Z,61.03
2022-12-16T05:00:44.058Z,61.03
2022-12-16T05:03:30.371Z,53.33
2022-12-16T05:06:15.607Z,60.87
2022-12-16T05:09:02.154Z,64.10
2022-12-16T05:11:50.007Z,65.43
2022-12-16T05:14:35.334Z,52.25
2022-12-16T05:17:20.691Z,48.97
2022-12-16T05:20:06.109Z,61.35
2022-12-16T05:22:51.276Z,65.95
2022-12-16T05:25:37.887Z,58.40
2022-12-16T05:28:23.312Z,65.00
2022-12-16T05:31:08.766Z,61.93
2022-12-16T05:33:54.160Z,51.17
2022-12-16T05:36:39.557Z,66.03
2022-12-16T05:39:24.987Z,61.85
2022-12-16T05:42:11.564Z,59.47
2022-12-16T05:44:56.921Z,63.72
2022-12-16T05:47:42.293Z,58.50
2022-12-16T05:50:28.137Z,60.55
2022-12-16T05:53:14.236Z,62.63
2022-12-16T05:56:00.052Z,54.67
2022-12-16T05:58:47.601Z,54.92
2022-12-16T06:01:33.680Z,41.67
2022-12-16T06:04:18.863Z,56.80
2022-12-16T06:07:04.327Z,55.28
2022-12-16T06:09:56.163Z,63.95
2022-12-16T06:12:41.993Z,60.30
2022-12-16T06:15:29.176Z,61.65
2022-12-16T06:18:14.614Z,63.45
2022-12-16T06:21:14.501Z,62.15
2022-12-16T06:23:59.836Z,63.63
2022-12-16T06:26:44.839Z,58.30
2022-12-16T06:29:30.100Z,51.93
2022-12-16T06:32:16.913Z,58.30
2022-12-16T06:35:02.132Z,57.17
2022-12-16T06:37:47.573Z,65.80
2022-12-16T06:40:33.111Z,62.07
2022-12-16T06:43:18.455Z,53.50
2022-12-16T06:46:03.841Z,53.57
2022-12-16T06:48:50.452Z,64.17
2022-12-16T06:51:35.881Z,64.80
2022-12-16T06:54:21.283Z,55.10
2022-12-16T06:57:06.684Z,55.20
2022-12-16T06:59:52.061Z,57.77
2022-12-16T07:02:37.418Z,52.75
2022-12-16T07:05:29.988Z,62.00
2022-12-16T07:08:15.496Z,65.83
2022-12-16T07:11:15.292Z,62.90
2022-12-16T07:14:01.773Z,61.33
2022-12-16T07:16:47.304Z,60.53
2022-12-16T07:19:32.433Z,67.53
2022-12-16T07:22:19.124Z,64.18
2022-12-16T07:25:04.508Z,53.83
2022-12-16T07:27:49.820Z,67.53
2022-12-16T07:30:35.111Z,72.72
2022-12-16T07:33:20.360Z,68.40
2022-12-16T07:36:05.863Z,66.77
2022-12-16T07:38:52.622Z,52.50
2022-12-16T07:41:37.831Z,64.40
2022-12-16T07:44:23.175Z,66.27
2022-12-16T07:47:08.536Z,68.00
2022-12-16T07:49:56.126Z,63.53
2022-12-16T07:52:41.729Z,49.75
2022-12-16T07:55:28.409Z,62.03
2022-12-16T07:58:13.782Z,61.73
2022-12-16T08:00:59.294Z,64.13
2022-12-16T08:03:46.856Z,64.63
2022-12-16T08:06:35.932Z,68.77
2022-12-16T08:09:24.128Z,66.13
2022-12-16T08:12:10.727Z,66.53
2022-12-16T08:14:56.110Z,65.23
2022-12-16T08:17:41.379Z,65.68
2022-12-16T08:20:26.921Z,70.50
2022-12-16T08:23:27.081Z,62.75
2022-12-16T08:26:12.049Z,71.20
2022-12-16T08:29:09.332Z,58.57
2022-12-16T08:31:59.118Z,68.47
2022-12-16T08:34:44.524Z,68.27
2022-12-16T08:37:26.128Z,66.07
2022-12-16T08:40:34.412Z,70.77
2022-12-16T08:43:16.971Z,64.93
2022-12-16T08:46:03.790Z,49.67
2022-12-16T08:48:49.048Z,58.05
2022-12-16T08:51:34.546Z,66.97
2022-12-16T08:54:19.921Z,67.27
2022-12-16T08:57:05.273Z,72.37
2022-12-16T08:59:50.601Z,69.75
2022-12-16T09:02:37.849Z,56.75
2022-12-16T09:05:23.815Z,64.63
2022-12-16T09:08:09.251Z,68.00
2022-12-16T09:10:55.221Z,71.93
2022-12-16T09:13:40.520Z,68.90
2022-12-16T09:16:26.572Z,73.78
2022-12-16T09:19:13.174Z,74.17
2022-12-16T09:21:58.440Z,67.23
2022-12-16T09:24:43.753Z,70.73
2022-12-16T09:27:29.165Z,78.27
2022-12-16T09:30:14.481Z,74.33
2022-12-16T09:33:00.153Z,78.10
2022-12-16T09:35:46.739Z,74.43
2022-12-16T09:38:32.144Z,69.90
2022-12-16T09:41:47.552Z,77.57
2022-12-16T09:44:39.765Z,71.45
2022-12-16T09:47:31.250Z,83.93
2022-12-16T09:50:16.436Z,65.77
2022-12-16T09:53:04.656Z,64.27
2022-12-16T09:55:51.676Z,80.93
2022-12-16T09:58:39.484Z,76.33
2022-12-16T10:01:25.012Z,87.47
2022-12-16T10:04:10.395Z,80.57
2022-12-16T10:07:00.479Z,77.60
2022-12-16T10:09:49.408Z,74.07
2022-12-16T10:12:43.365Z,76.67
2022-12-16T10:15:35.831Z,70.27
2022-12-16T10:18:24.633Z,72.10
2022-12-16T10:21:10.807Z,65.93
2022-12-16T10:24:01.407Z,83.47
2022-12-16T10:27:03.917Z,75.07
2022-12-16T10:29:50.219Z,66.67
2022-12-16T10:32:38.598Z,77.03
2022-12-16T10:35:37.064Z,80.13
2022-12-16T10:38:24.873Z,71.97
2022-12-16T10:41:10.168Z,73.90
2022-12-16T10:43:59.308Z,77.07
2022-12-16T10:46:47.160Z,82.60
2022-12-16T10:49:34.635Z,73.43
2022-12-16T10:52:20.939Z,64.90
2022-12-16T10:55:13.899Z,75.33
2022-12-16T10:58:09.906Z,67.10
2022-12-16T11:01:02.735Z,75.67
2022-12-16T11:03:49.725Z,81.83
2022-12-16T11:06:38.759Z,77.33
2022-12-16T11:09:44.411Z,88.83
2022-12-16T11:12:38.985Z,81.37
2022-12-16T11:15:41.652Z,86.00
2022-12-16T11:18:32.745Z,85.10
2022-12-16T11:21:39.487Z,85.93
2022-12-16T11:24:33.471Z,86.30
2022-12-16T11:27:19.885Z,84.17
2022-12-16T11:30:09.449Z,82.67
2022-12-16T11:32:55.940Z,75.57
2022-12-16T11:35:45.652Z,74.17
2022-12-16T11:38:37.566Z,80.53
2022-12-16T11:41:19.578Z,72.30
2022-12-16T11:44:07.800Z,74.80
2022-12-16T11:46:53.316Z,89.13
2022-12-16T11:49:45.086Z,82.13
2022-12-16T11:52:37.290Z,76.37
2022-12-16T11:56:02.788Z,92.17
2022-12-16T11:58:40.077Z,87.13
2022-12-16T12:01:31.367Z,95.07
2022-12-16T12:04:16.948Z,86.03
2022-12-16T12:07:16.172Z,97.57
2022-12-16T12:10:07.966Z,91.60
2022-12-16T12:12:58.772Z,77.03
2022-12-16T12:15:51.249Z,85.77
2022-12-16T12:18:43.128Z,82.27
2022-12-16T12:21:34.368Z,97.50
2022-12-16T12:24:26.744Z,88.43
2022-12-16T12:27:20.014Z,94.57
2022-12-16T12:30:18.080Z,89.77
2022-12-16T12:33:12.093Z,89.13
2022-12-16T12:36:09.431Z,90.57
2022-12-16T12:39:00.383Z,96.77
2022-12-16T12:41:47.493Z,90.53
2022-12-16T12:44:48.636Z,92.23
2022-12-16T12:47:36.037Z,81.43
2022-12-16T12:50:26.896Z,96.20
2022-12-16T12:53:28.648Z,100.37
2022-12-16T12:56:21.022Z,82.73
2022-12-16T12:59:13.726Z,91.83
2022-12-16T13:02:07.417Z,98.63
2022-12-16T13:04:52.747Z,91.30
2022-12-16T13:07:37.941Z,86.57
2022-12-16T13:10:59.456Z,92.73
2022-12-16T13:13:51.004Z,83.17
2022-12-16T13:17:25.983Z,81.63
2022-12-16T13:20:16.796Z,82.47
2022-12-16T13:23:03.053Z,82.00
2022-12-16T13:25:52.382Z,88.73
2022-12-16T13:28:43.335Z,96.83
2022-12-16T13:31:28.866Z,88.37
2022-12-16T13:34:17.484Z,93.33
2022-12-16T13:37:04.247Z,94.13
2022-12-16T13:39:48.832Z,96.83
2022-12-16T13:42:55.790Z,99.23
2022-12-16T13:45:50.356Z,90.57
2022-12-16T13:48:46.017Z,89.53
2022-12-16T13:52:05.048Z,90.23
2022-12-16T13:54:54.793Z,83.40
2022-12-16T13:57:42.590Z,73.97
2022-12-16T14:00:36.903Z,94.73
2022-12-16T14:03:23.777Z,92.47
2022-12-16T14:06:09.733Z,80.53
2022-12-16T14:08:59.778Z,98.47
2022-12-16T14:11:55.973Z,84.77
2022-12-16T14:14:42.134Z,67.90
2022-12-16T14:17:33.954Z,77.43
2022-12-16T14:20:22.834Z,76.43
2022-12-16T14:23:17.874Z,68.33
2022-12-16T14:26:23.540Z,73.37
2022-12-16T14:29:10.024Z,70.80
2022-12-16T14:31:57.076Z,70.97
2022-12-16T14:34:43.598Z,82.87
2022-12-16T14:37:31.868Z,83.63
2022-12-16T14:40:17.178Z,78.33
2022-12-16T14:43:13.947Z,66.73
2022-12-16T14:46:07.321Z,72.53
2022-12-16T14:48:53.793Z,70.03
2022-12-16T14:51:43.784Z,76.17
2022-12-16T14:54:43.994Z,73.73
2022-12-16T14:57:31.751Z,78.27
2022-12-16T15:00:22.727Z,77.73
2022-12-16T15:03:10.351Z,75.17
2022-12-16T15:05:56.340Z,82.10
2022-12-16T15:08:42.107Z,79.43
2022-12-16T15:11:34.920Z,82.07
2022-12-16T15:14:21.063Z,80.07
2022-12-16T15:17:08.662Z,75.93
2022-12-16T15:20:03.149Z,68.70
2022-12-16T15:22:48.766Z,69.47
2022-12-16T15:25:39.340Z,79.43
2022-12-16T15:28:41.619Z,85.20
2022-12-16T15:31:34.256Z,79.17
2022-12-16T15:34:54.744Z,83.57
2022-12-16T15:37:43.636Z,68.03
2022-12-16T15:40:40.768Z,79.70
2022-12-16T15:43:39.221Z,87.23
2022-12-16T15:46:24.847Z,83.13
2022-12-16T15:49:10.800Z,88.10
2022-12-16T15:52:02.584Z,76.47
2022-12-16T15:54:49.195Z,75.23
2022-12-16T15:57:45.437Z,84.93
2022-12-16T16:00:47.343Z,82.93
2022-12-16T16:03:37.824Z,80.97
2022-12-16T16:06:24.255Z,80.87
2022-12-16T16:09:09.758Z,82.90
2022-12-16T16:11:56.372Z,87.80
2022-12-16T16:14:41.770Z,81.77
2022-12-16T16:17:35.397Z,86.87
2022-12-16T16:20:20.736Z,82.40
2022-12-16T16:23:05.898Z,81.37
2022-12-16T16:25:51.087Z,85.17
2022-12-16T16:28:37.531Z,83.17
2022-12-16T16:31:22.981Z,87.90
2022-12-16T16:34:08.511Z,89.27
2022-12-16T16:36:53.968Z,91.27
2022-12-16T16:39:40.371Z,90.90
2022-12-16T16:42:26.775Z,80.53
2022-12-16T16:45:13.474Z,79.50
2022-12-16T16:47:59.010Z,83.23
2022-12-16T16:50:44.195Z,86.20
2022-12-16T16:53:33.043Z,79.67
2022-12-16T16:56:20.326Z,85.60
2022-12-16T16:59:05.911Z,73.07
2022-12-16T17:01:52.679Z,86.40
2022-12-16T17:04:37.889Z,84.60
2022-12-16T17:07:23.101Z,81.43
2022-12-16T17:10:08.549Z,75.83
2022-12-16T17:12:57.493Z,84.60
2022-12-16T17:15:48.861Z,76.77
2022-12-16T17:18:36.545Z,83.88
2022-12-16T17:21:23.185Z,76.93
2022-12-16T17:24:08.539Z,85.90
2022-12-16T17:26:53.892Z,83.37
2022-12-16T17:29:41.152Z,88.53
2022-12-16T17:32:27.071Z,73.13
2022-12-16T17:35:13.661Z,84.77
2022-12-16T17:37:58.949Z,88.83
2022-12-16T17:40:44.236Z,76.70
2022-12-16T17:43:29.737Z,81.13
2022-12-16T17:46:16.908Z,84.77
2022-12-16T17:49:02.399Z,83.17
2022-12-16T17:51:49.125Z,84.77
2022-12-16T17:54:34.470Z,80.50
2022-12-16T17:57:19.967Z,76.60
2022-12-16T18:00:05.285Z,83.37
2022-12-16T18:02:50.877Z,79.30
2022-12-16T18:05:41.263Z,80.97
2022-12-16T18:08:31.090Z,76.50
2022-12-16T18:11:17.000Z,82.30
2022-12-16T18:14:02.344Z,77.57
2022-12-16T18:16:47.764Z,80.50
2022-12-16T18:19:34.438Z,84.10
2022-12-16T18:22:20.302Z,78.23
2022-12-16T18:25:06.888Z,82.13
2022-12-16T18:28:03.748Z,84.03
2022-12-16T18:30:49.096Z,74.53
2022-12-16T18:33:34.823Z,67.37
2022-12-16T18:36:20.007Z,84.30
2022-12-16T18:39:05.363Z,86.93
2022-12-16T18:41:51.221Z,88.60
2022-12-16T18:44:36.575Z,87.67
2022-12-16T18:47:22.070Z,84.27
2022-12-16T18:50:07.300Z,87.80
2022-12-16T18:52:52.624Z,82.97
2022-12-16T18:55:37.761Z,78.17
2022-12-16T19:01:30.770Z,70.73
2022-12-16T19:04:16.767Z,85.10
2022-12-16T19:07:02.120Z,86.93
2022-12-16T19:09:47.549Z,87.23
2022-12-16T19:12:32.784Z,87.40
2022-12-16T19:15:19.404Z,83.53
2022-12-16T19:18:04.865Z,86.47
2022-12-16T19:20:50.124Z,81.33
2022-12-16T19:23:35.904Z,82.43
2022-12-16T19:26:21.360Z,87.17
2022-12-16T19:29:08.989Z,88.87
2022-12-16T19:31:56.195Z,85.23
2022-12-16T19:34:41.766Z,70.63
2022-12-16T19:37:27.143Z,83.47
2022-12-16T19:40:12.487Z,75.90
2022-12-16T19:42:57.747Z,78.40
2022-12-16T19:45:43.205Z,87.65
2022-12-16T19:48:29.875Z,80.07
2022-12-16T19:51:15.803Z,81.87
2022-12-16T19:54:01.664Z,87.40
2022-12-16T19:56:47.453Z,75.87
2022-12-16T19:59:32.842Z,77.80
2022-12-16T20:02:18.313Z,94.63
2022-12-16T20:05:04.733Z,89.27
2022-12-16T20:07:50.402Z,87.97
2022-12-16T20:10:36.931Z,82.83
2022-12-16T20:13:30.088Z,86.38
2022-12-16T20:16:19.557Z,83.67
2022-12-16T20:19:05.021Z,83.63
2022-12-16T20:21:56.392Z,74.03
2022-12-16T20:24:42.217Z,70.07
2022-12-16T20:27:28.047Z,86.13
2022-12-16T20:30:13.424Z,80.53
2022-12-16T20:33:04.119Z,76.57
2022-12-16T20:35:49.595Z,77.73
2022-12-16T20:38:36.411Z,86.53
2022-12-16T20:41:22.904Z,94.63
2022-12-16T20:44:08.364Z,74.05
2022-12-16T20:49:59.671Z,77.57
2022-12-16T20:52:44.840Z,81.63
2022-12-16T20:55:31.597Z,85.20
2022-12-16T20:58:17.030Z,79.27
2022-12-16T21:01:02.153Z,83.87
2022-12-16T21:03:47.344Z,85.88
2022-12-16T21:06:32.485Z,80.07
2022-12-16T21:09:17.962Z,86.03
2022-12-16T21:12:04.419Z,88.40
2022-12-16T21:14:49.883Z,80.10
2022-12-16T21:17:35.198Z,68.50
2022-12-16T21:20:20.417Z,73.43
2022-12-16T21:23:05.993Z,76.97
2022-12-16T21:25:51.200Z,81.22
2022-12-16T21:28:38.453Z,70.95
2022-12-16T21:31:23.983Z,94.00
2022-12-16T21:34:11.189Z,86.67
2022-12-16T21:36:56.702Z,83.40
2022-12-16T21:39:42.120Z,73.20
2022-12-16T21:42:33.152Z,70.93
2022-12-16T21:45:21.929Z,81.80
2022-12-16T21:48:07.357Z,84.18
2022-12-16T21:50:52.631Z,72.10
2022-12-16T21:53:39.026Z,76.32
2022-12-16T21:56:24.297Z,84.50
2022-12-16T21:59:09.537Z,79.40
2022-12-16T22:01:56.522Z,76.85
2022-12-16T22:04:42.127Z,64.10
2022-12-16T22:07:27.432Z,84.43
2022-12-16T22:10:12.800Z,83.35
2022-12-16T22:12:58.052Z,83.53
2022-12-16T22:15:45.720Z,69.68
2022-12-16T22:18:32.473Z,82.90
2022-12-16T22:21:19.260Z,80.32
2022-12-16T22:24:04.761Z,65.13
2022-12-16T22:26:50.142Z,62.97
2022-12-16T22:29:35.660Z,74.33
2022-12-16T22:32:20.809Z,77.13
2022-12-16T22:35:07.424Z,77.70
2022-12-16T22:37:52.814Z,72.47
2022-12-16T22:40:41.684Z,81.72
2022-12-16T22:43:26.982Z,82.00
2022-12-16T22:46:17.970Z,81.93
2022-12-16T22:49:05.173Z,73.38
2022-12-16T22:51:52.359Z,70.75
2022-12-16T22:54:39.145Z,76.60
2022-12-16T22:57:24.436Z,97.73
2022-12-16T23:00:18.418Z,82.17
2022-12-16T23:03:03.903Z,76.37
2022-12-16T23:05:49.241Z,77.27
2022-12-16T23:08:35.993Z,60.95
2022-12-16T23:11:21.259Z,70.90
2022-12-16T23:14:06.582Z,77.13
2022-12-16T23:16:51.827Z,60.25
2022-12-16T23:19:38.549Z,74.27
2022-12-16T23:22:23.923Z,81.57
2022-12-16T23:25:10.591Z,80.50
2022-12-16T23:27:55.946Z,77.53
2022-12-16T23:30:42.311Z,86.97
2022-12-16T23:33:27.665Z,81.07
2022-12-16T23:36:13.121Z,76.67
2022-12-16T23:38:58.599Z,88.53
2022-12-16T23:41:45.208Z,81.90
2022-12-16T23:44:30.709Z,77.27
2022-12-16T23:47:15.976Z,75.30
2022-12-16T23:50:01.328Z,61.08
2022-12-16T23:52:46.730Z,67.77
2022-12-16T23:55:31.943Z,74.63
2022-12-16T23:58:19.575Z,77.63
